createdAt,value
2022-08-03T00:00:03.397Z,20.04
2022-08-03T00:00:56.468Z,20.11
2022-08-03T00:01:36.385Z,20.13
2022-08-03T00:02:24.417Z,19.96
2022-08-03T00:03:18.407Z,20.05
2022-08-03T00:04:12.401Z,20.25
2022-08-03T00:05:07.397Z,20.21
2022-08-03T00:06:04.808Z,20.08
2022-08-03T00:06:59.391Z,20.19
2022-08-03T00:07:48.616Z,20.20
2022-08-03T00:08:23.650Z,20.18
2022-08-03T00:09:12.408Z,20.20
2022-08-03T00:09:46.550Z,20.15
2022-08-03T00:10:33.372Z,20.14
2022-08-03T00:11:07.444Z,20.21
2022-08-03T00:11:54.370Z,20.08
2022-08-03T00:12:28.438Z,20.05
2022-08-03T00:13:08.385Z,20.12
2022-08-03T00:13:48.429Z,20.14
2022-08-03T00:14:28.412Z,20.13
2022-08-03T00:15:15.005Z,20.02
2022-08-03T00:15:56.385Z,20.05
2022-08-03T00:16:36.483Z,19.99
2022-08-03T00:17:17.386Z,20.11
2022-08-03T00:17:57.434Z,20.02
2022-08-03T00:18:38.409Z,20.01
2022-08-03T00:19:18.416Z,20.13
2022-08-03T00:19:58.361Z,20.05
2022-08-03T00:20:38.453Z,20.00
2022-08-03T00:21:19.374Z,20.00
2022-08-03T00:21:59.464Z,20.03
2022-08-03T00:22:42.384Z,20.00
2022-08-03T00:23:22.432Z,19.91
2022-08-03T00:24:03.383Z,19.99
2022-08-03T00:24:43.435Z,19.83
2022-08-03T00:25:24.365Z,19.96
2022-08-03T00:26:04.417Z,20.04
2022-08-03T00:26:45.366Z,20.02
2022-08-03T00:27:25.456Z,19.97
2022-08-03T00:28:05.370Z,19.95
2022-08-03T00:28:45.425Z,20.00
2022-08-03T00:29:25.381Z,20.12
2022-08-03T00:30:05.444Z,19.97
2022-08-03T00:30:46.368Z,20.09
2022-08-03T00:31:39.724Z,20.07
2022-08-03T00:32:26.340Z,20.06
2022-08-03T00:33:08.361Z,20.05
2022-08-03T00:33:59.388Z,19.95
2022-08-03T00:34:57.893Z,20.02
2022-08-03T00:35:50.447Z,20.02
2022-08-03T00:36:38.356Z,20.02
2022-08-03T00:37:12.481Z,20.03
2022-08-03T00:37:59.351Z,19.98
2022-08-03T00:38:33.410Z,20.12
2022-08-03T00:39:20.361Z,20.10
2022-08-03T00:40:01.357Z,20.09
2022-08-03T00:40:57.361Z,20.04
2022-08-03T00:41:51.367Z,20.03
2022-08-03T00:42:45.406Z,20.01
2022-08-03T00:43:40.361Z,19.84
2022-08-03T00:44:34.359Z,20.02
2022-08-03T00:45:21.390Z,19.96
2022-08-03T00:45:55.425Z,19.99
2022-08-03T00:46:42.352Z,19.93
2022-08-03T00:47:16.425Z,19.80
2022-08-03T00:48:04.366Z,19.98
2022-08-03T00:48:38.420Z,19.87
2022-08-03T00:49:25.506Z,19.97
2022-08-03T00:49:59.402Z,19.93
2022-08-03T00:50:48.365Z,19.94
2022-08-03T00:51:27.409Z,20.00
2022-08-03T00:52:18.389Z,19.96
2022-08-03T00:52:53.409Z,19.94
2022-08-03T00:53:42.349Z,19.95
2022-08-03T00:54:17.433Z,19.99
2022-08-03T00:55:04.351Z,19.93
2022-08-03T00:55:38.412Z,19.99
2022-08-03T00:56:23.468Z,20.01
2022-08-03T00:57:04.461Z,19.81
2022-08-03T00:57:45.340Z,19.93
2022-08-03T00:58:25.452Z,19.97
2022-08-03T00:59:06.312Z,19.87
2022-08-03T00:59:46.424Z,19.91
2022-08-03T01:00:30.337Z,19.97
2022-08-03T01:01:10.495Z,19.81
2022-08-03T01:01:50.439Z,19.93
2022-08-03T01:02:31.415Z,20.01
2022-08-03T01:03:17.344Z,19.88
2022-08-03T01:03:57.408Z,19.97
2022-08-03T01:04:37.351Z,19.96
2022-08-03T01:05:11.363Z,19.98
2022-08-03T01:06:26.340Z,19.99
2022-08-03T01:07:13.364Z,19.89
2022-08-03T01:08:29.470Z,20.03
2022-08-03T01:09:41.342Z,20.15
2022-08-03T01:10:53.392Z,20.06
2022-08-03T01:11:59.769Z,20.14
2022-08-03T01:14:01.243Z,20.09
2022-08-03T01:14:43.414Z,20.13
2022-08-03T01:15:44.524Z,19.99
2022-08-03T01:16:39.324Z,20.06
2022-08-03T01:17:27.382Z,19.98
2022-08-03T01:18:31.002Z,19.88
2022-08-03T01:19:41.361Z,19.98
2022-08-03T01:20:18.495Z,19.89
2022-08-03T01:20:56.852Z,19.93
2022-08-03T01:22:17.604Z,19.89
2022-08-03T01:23:30.405Z,20.10
2022-08-03T01:24:51.353Z,19.97
2022-08-03T01:25:54.346Z,19.98
2022-08-03T01:27:07.322Z,19.92
2022-08-03T01:28:22.409Z,19.71
2022-08-03T01:29:44.324Z,19.96
2022-08-03T01:30:24.326Z,19.98
2022-08-03T01:31:08.242Z,19.85
2022-08-03T01:32:54.499Z,19.85
2022-08-03T01:33:12.315Z,19.65
2022-08-03T01:33:49.413Z,19.80
2022-08-03T01:34:23.505Z,19.72
2022-08-03T01:35:13.325Z,19.74
2022-08-03T01:36:04.345Z,19.79
2022-08-03T01:36:43.709Z,19.78
2022-08-03T01:37:35.322Z,19.69
2022-08-03T01:38:27.672Z,19.62
2022-08-03T01:39:18.317Z,19.59
2022-08-03T01:39:54.004Z,19.70
2022-08-03T01:40:44.304Z,19.75
2022-08-03T01:41:29.360Z,19.72
2022-08-03T01:42:13.597Z,19.79
2022-08-03T01:42:54.298Z,19.77
2022-08-03T01:44:26.407Z,19.74
2022-08-03T01:44:38.299Z,19.81
2022-08-03T01:45:21.385Z,19.75
2022-08-03T01:46:04.331Z,19.69
2022-08-03T01:46:55.347Z,19.63
2022-08-03T01:47:30.012Z,19.79
2022-08-03T01:48:18.335Z,19.67
2022-08-03T01:48:52.652Z,19.73
2022-08-03T01:49:41.335Z,19.68
2022-08-03T01:50:15.814Z,19.63
2022-08-03T01:51:08.289Z,19.73
2022-08-03T01:52:02.793Z,19.85
2022-08-03T01:52:48.342Z,19.91
2022-08-03T01:53:25.368Z,19.89
2022-08-03T01:53:59.681Z,19.93
2022-08-03T01:54:43.297Z,19.99
2022-08-03T01:55:18.373Z,19.99
2022-08-03T01:55:55.650Z,19.98
2022-08-03T01:56:37.307Z,19.99
2022-08-03T01:57:11.493Z,19.99
2022-08-03T01:58:05.315Z,19.98
2022-08-03T01:58:47.397Z,20.08
2022-08-03T01:59:23.428Z,20.01
2022-08-03T01:59:59.427Z,20.09
2022-08-03T02:00:42.327Z,20.01
2022-08-03T02:01:17.526Z,19.93
2022-08-03T02:02:29.185Z,19.76
2022-08-03T02:02:54.281Z,19.90
2022-08-03T02:03:29.362Z,19.94
2022-08-03T02:04:11.307Z,19.92
2022-08-03T02:04:52.352Z,19.89
2022-08-03T02:05:34.283Z,19.88
2022-08-03T02:07:02.787Z,19.94
2022-08-03T02:07:17.491Z,19.96
2022-08-03T02:07:58.336Z,19.91
2022-08-03T02:08:39.288Z,19.92
2022-08-03T02:09:28.303Z,19.95
2022-08-03T02:10:05.357Z,20.03
2022-08-03T02:10:55.266Z,19.93
2022-08-03T02:11:31.581Z,19.96
2022-08-03T02:12:22.312Z,19.94
2022-08-03T02:12:56.084Z,19.84
2022-08-03T02:13:44.276Z,19.85
2022-08-03T02:14:19.444Z,19.86
2022-08-03T02:15:01.299Z,19.83
2022-08-03T02:15:35.422Z,19.82
2022-08-03T02:16:09.745Z,19.75
2022-08-03T02:16:51.294Z,19.85
2022-08-03T02:17:38.454Z,19.83
2022-08-03T02:18:14.988Z,19.76
2022-08-03T02:18:56.273Z,19.81
2022-08-03T02:19:35.653Z,19.69
2022-08-03T02:20:18.296Z,19.70
2022-08-03T02:20:59.347Z,19.57
2022-08-03T02:21:56.964Z,19.60
2022-08-03T02:22:42.398Z,19.58
2022-08-03T02:23:23.253Z,19.67
2022-08-03T02:24:04.466Z,19.52
2022-08-03T02:24:45.273Z,19.68
2022-08-03T02:25:39.314Z,19.57
2022-08-03T02:26:16.241Z,19.63
2022-08-03T02:27:06.270Z,19.51
2022-08-03T02:27:46.466Z,19.58
2022-08-03T02:28:35.265Z,19.54
2022-08-03T02:29:18.969Z,19.46
2022-08-03T02:30:21.258Z,19.45
2022-08-03T02:31:03.283Z,19.40
2022-08-03T02:31:44.337Z,19.29
2022-08-03T02:32:30.275Z,19.41
2022-08-03T02:33:12.318Z,19.39
2022-08-03T02:34:03.268Z,19.40
2022-08-03T02:34:44.316Z,19.39
2022-08-03T02:35:26.260Z,19.37
2022-08-03T02:36:15.291Z,19.27
2022-08-03T02:36:50.705Z,19.37
2022-08-03T02:37:42.920Z,19.28
2022-08-03T02:38:21.619Z,19.34
2022-08-03T02:39:14.282Z,19.33
2022-08-03T02:39:49.146Z,19.48
2022-08-03T02:40:38.273Z,19.44
2022-08-03T02:41:25.272Z,19.45
2022-08-03T02:42:07.317Z,19.47
2022-08-03T02:42:48.243Z,19.55
2022-08-03T02:43:30.325Z,19.57
2022-08-03T02:44:32.265Z,19.61
2022-08-03T02:45:16.326Z,19.58
2022-08-03T02:45:58.241Z,19.47
2022-08-03T02:46:51.279Z,19.60
2022-08-03T02:47:27.994Z,19.68
2022-08-03T02:48:18.266Z,19.61
2022-08-03T02:49:41.420Z,19.71
2022-08-03T02:50:30.499Z,19.63
2022-08-03T02:51:25.275Z,19.71
2022-08-03T02:52:17.458Z,19.59
2022-08-03T02:52:53.367Z,19.64
2022-08-03T02:53:41.236Z,19.67
2022-08-03T02:54:16.305Z,19.66
2022-08-03T02:55:07.234Z,19.69
2022-08-03T02:55:42.943Z,19.73
2022-08-03T02:56:35.224Z,19.61
2022-08-03T02:57:09.340Z,19.63
2022-08-03T02:57:51.264Z,19.53
2022-08-03T02:58:31.474Z,19.53
2022-08-03T02:59:13.261Z,19.73
2022-08-03T02:59:54.374Z,19.71
2022-08-03T03:00:36.320Z,19.78
2022-08-03T03:01:18.330Z,19.70
2022-08-03T03:02:00.246Z,19.74
2022-08-03T03:02:44.437Z,19.68
2022-08-03T03:03:26.413Z,19.71
2022-08-03T03:04:09.321Z,19.60
2022-08-03T03:05:51.102Z,19.64
2022-08-03T03:05:57.519Z,19.56
2022-08-03T03:06:39.226Z,19.43
2022-08-03T03:07:21.541Z,19.48
2022-08-03T03:08:02.211Z,19.57
2022-08-03T03:08:42.250Z,19.52
2022-08-03T03:09:16.305Z,19.53
2022-08-03T03:10:04.262Z,19.46
2022-08-03T03:10:38.318Z,19.60
2022-08-03T03:11:28.225Z,19.60
2022-08-03T03:12:03.310Z,19.72
2022-08-03T03:12:52.262Z,19.64
2022-08-03T03:13:26.370Z,19.64
2022-08-03T03:14:07.264Z,19.56
2022-08-03T03:14:49.304Z,19.49
2022-08-03T03:15:32.218Z,19.58
2022-08-03T03:16:13.525Z,19.51
2022-08-03T03:16:57.639Z,19.61
2022-08-03T03:17:39.301Z,19.65
2022-08-03T03:18:22.590Z,19.65
2022-08-03T03:19:04.311Z,19.62
2022-08-03T03:19:46.246Z,19.57
2022-08-03T03:20:30.140Z,19.58
2022-08-03T03:21:12.201Z,19.69
2022-08-03T03:21:52.326Z,19.61
2022-08-03T03:22:33.206Z,19.57
2022-08-03T03:23:15.304Z,19.55
2022-08-03T03:23:56.211Z,19.49
2022-08-03T03:24:37.316Z,19.41
2022-08-03T03:25:18.265Z,19.47
2022-08-03T03:25:59.368Z,19.48
2022-08-03T03:26:42.489Z,19.43
2022-08-03T03:27:23.270Z,19.50
2022-08-03T03:28:04.237Z,19.45
2022-08-03T03:28:47.346Z,19.36
2022-08-03T03:29:28.238Z,19.39
2022-08-03T03:30:10.284Z,19.41
2022-08-03T03:30:52.800Z,19.27
2022-08-03T03:31:33.277Z,19.42
2022-08-03T03:32:14.390Z,19.44
2022-08-03T03:32:55.283Z,19.41
2022-08-03T03:33:35.259Z,19.44
2022-08-03T03:34:15.263Z,19.36
2022-08-03T03:34:57.197Z,19.46
2022-08-03T03:35:38.999Z,19.43
2022-08-03T03:36:19.250Z,19.49
2022-08-03T03:36:59.311Z,19.39
2022-08-03T03:37:39.229Z,19.50
2022-08-03T03:38:19.346Z,19.48
2022-08-03T03:38:59.221Z,19.42
2022-08-03T03:39:56.279Z,19.44
2022-08-03T03:40:37.195Z,19.40
2022-08-03T03:41:17.265Z,19.40
2022-08-03T03:41:58.213Z,19.41
2022-08-03T03:42:39.359Z,19.33
2022-08-03T03:43:20.209Z,19.39
2022-08-03T03:44:00.320Z,19.36
2022-08-03T03:44:41.200Z,19.41
2022-08-03T03:45:22.390Z,19.31
2022-08-03T03:46:05.196Z,19.32
2022-08-03T03:46:46.320Z,19.47
2022-08-03T03:47:32.703Z,19.33
2022-08-03T03:48:14.265Z,19.32
2022-08-03T03:48:55.231Z,19.33
2022-08-03T03:49:35.327Z,19.25
2022-08-03T03:50:17.212Z,19.21
2022-08-03T03:50:59.561Z,19.29
2022-08-03T03:51:40.201Z,19.27
2022-08-03T03:52:20.266Z,19.36
2022-08-03T03:53:01.229Z,19.25
2022-08-03T03:53:42.301Z,19.30
2022-08-03T03:54:25.519Z,19.32
2022-08-03T03:55:09.277Z,19.41
2022-08-03T03:55:59.807Z,19.38
2022-08-03T03:56:43.283Z,19.27
2022-08-03T03:57:24.199Z,19.28
2022-08-03T03:58:14.064Z,19.31
2022-08-03T03:59:02.249Z,19.30
2022-08-03T03:59:47.205Z,19.29
2022-08-03T04:00:27.345Z,19.28
2022-08-03T04:01:08.309Z,19.30
2022-08-03T04:01:48.316Z,19.30
2022-08-03T04:02:40.202Z,19.26
2022-08-03T04:03:27.310Z,19.34
2022-08-03T04:04:40.257Z,19.41
2022-08-03T04:05:52.181Z,19.44
2022-08-03T04:07:04.205Z,19.35
2022-08-03T04:08:31.242Z,19.49
2022-08-03T04:09:43.197Z,19.57
2022-08-03T04:10:59.169Z,19.57
2022-08-03T04:12:07.186Z,19.46
2022-08-03T04:13:02.168Z,19.56
2022-08-03T04:14:16.186Z,19.53
2022-08-03T04:14:50.225Z,19.50
2022-08-03T04:15:38.202Z,19.53
2022-08-03T04:16:14.277Z,19.47
2022-08-03T04:17:09.183Z,19.51
2022-08-03T04:17:43.249Z,19.52
2022-08-03T04:18:31.194Z,19.55
2022-08-03T04:19:24.205Z,19.50
2022-08-03T04:20:19.152Z,19.63
2022-08-03T04:21:17.164Z,19.53
2022-08-03T04:22:15.385Z,19.59
2022-08-03T04:23:13.726Z,19.69
2022-08-03T04:24:15.191Z,19.79
2022-08-03T04:25:03.211Z,19.89
2022-08-03T04:25:44.253Z,19.74
2022-08-03T04:26:28.159Z,19.75
2022-08-03T04:27:11.360Z,19.88
2022-08-03T04:28:28.279Z,19.77
2022-08-03T04:28:56.308Z,19.98
2022-08-03T04:29:48.380Z,19.84
2022-08-03T04:30:30.192Z,19.88
2022-08-03T04:31:06.244Z,20.00
2022-08-03T04:31:54.161Z,19.96
2022-08-03T04:32:29.337Z,19.97
2022-08-03T04:33:17.179Z,20.04
2022-08-03T04:33:54.628Z,20.07
2022-08-03T04:34:42.178Z,20.07
2022-08-03T04:35:16.236Z,20.01
2022-08-03T04:36:02.653Z,20.03
2022-08-03T04:36:50.324Z,20.04
2022-08-03T04:37:52.171Z,20.15
2022-08-03T04:38:32.233Z,20.18
2022-08-03T04:39:27.161Z,20.08
2022-08-03T04:40:10.256Z,20.19
2022-08-03T04:40:51.120Z,20.25
2022-08-03T04:41:33.195Z,20.29
2022-08-03T04:42:28.221Z,20.35
2022-08-03T04:43:17.168Z,20.42
2022-08-03T04:43:51.238Z,20.41
2022-08-03T04:44:47.177Z,20.50
2022-08-03T04:45:23.243Z,20.58
2022-08-03T04:46:11.136Z,20.63
2022-08-03T04:46:53.164Z,20.67
2022-08-03T04:47:48.162Z,20.62
2022-08-03T04:48:44.681Z,20.74
2022-08-03T04:49:40.221Z,20.83
2022-08-03T04:50:35.173Z,20.85
2022-08-03T04:51:29.165Z,20.88
2022-08-03T04:52:16.391Z,20.93
2022-08-03T04:52:51.205Z,20.92
2022-08-03T04:53:38.125Z,21.07
2022-08-03T04:54:12.210Z,21.05
2022-08-03T04:54:59.149Z,21.09
2022-08-03T04:55:38.244Z,21.12
2022-08-03T04:56:25.156Z,21.18
2022-08-03T04:56:59.429Z,21.24
2022-08-03T04:57:39.169Z,21.26
2022-08-03T04:58:19.210Z,21.32
2022-08-03T04:59:00.133Z,21.35
2022-08-03T04:59:40.854Z,21.32
2022-08-03T05:00:22.146Z,21.42
2022-08-03T05:01:02.209Z,21.38
2022-08-03T05:01:43.233Z,21.44
2022-08-03T05:02:23.245Z,21.53
2022-08-03T05:03:04.176Z,21.58
2022-08-03T05:04:00.410Z,21.55
2022-08-03T05:04:40.128Z,21.64
2022-08-03T05:05:20.214Z,21.66
2022-08-03T05:06:11.473Z,21.62
2022-08-03T05:06:55.032Z,21.61
2022-08-03T05:07:36.773Z,21.76
2022-08-03T05:08:27.817Z,21.71
2022-08-03T05:09:49.975Z,21.75
2022-08-03T05:10:36.133Z,21.82
2022-08-03T05:11:31.121Z,21.81
2022-08-03T05:12:28.310Z,21.96
2022-08-03T05:13:25.159Z,21.90
2022-08-03T05:14:19.330Z,21.86
2022-08-03T05:15:23.146Z,22.00
2022-08-03T05:16:17.124Z,22.09
2022-08-03T05:17:11.132Z,22.16
2022-08-03T05:18:05.122Z,22.16
2022-08-03T05:18:46.139Z,22.02
2022-08-03T05:19:26.184Z,22.19
2022-08-03T05:20:07.137Z,22.15
2022-08-03T05:20:47.220Z,22.21
2022-08-03T05:21:27.183Z,22.27
2022-08-03T05:22:28.197Z,22.22
2022-08-03T05:23:10.112Z,22.34
2022-08-03T05:23:58.141Z,22.36
2022-08-03T05:24:52.108Z,22.39
2022-08-03T05:25:49.739Z,22.40
2022-08-03T05:26:44.171Z,22.42
2022-08-03T05:27:38.137Z,22.46
2022-08-03T05:28:32.137Z,22.43
2022-08-03T05:29:19.138Z,22.47
2022-08-03T05:29:54.185Z,22.51
2022-08-03T05:30:41.116Z,22.42
2022-08-03T05:31:15.186Z,22.59
2022-08-03T05:32:08.050Z,22.60
2022-08-03T05:32:42.175Z,22.57
2022-08-03T05:33:29.130Z,22.61
2022-08-03T05:34:04.216Z,22.64
2022-08-03T05:34:45.136Z,22.64
2022-08-03T05:35:57.322Z,22.76
2022-08-03T05:36:26.123Z,22.79
2022-08-03T05:37:07.292Z,22.85
2022-08-03T05:37:54.706Z,22.77
2022-08-03T05:38:36.268Z,22.85
2022-08-03T05:39:16.138Z,22.78
2022-08-03T05:40:03.140Z,22.82
2022-08-03T05:41:22.907Z,22.78
2022-08-03T05:42:11.106Z,22.89
2022-08-03T05:43:05.104Z,22.88
2022-08-03T05:43:59.097Z,22.93
2022-08-03T05:44:53.097Z,22.95
2022-08-03T05:45:33.120Z,22.98
2022-08-03T05:46:13.382Z,23.00
2022-08-03T05:46:53.134Z,23.08
2022-08-03T05:47:33.305Z,23.07
2022-08-03T05:48:13.117Z,23.08
2022-08-03T05:48:53.223Z,23.17
2022-08-03T05:49:33.153Z,23.14
2022-08-03T05:50:14.201Z,23.11
2022-08-03T05:50:54.116Z,23.19
2022-08-03T05:51:34.201Z,23.23
2022-08-03T05:52:15.090Z,23.23
2022-08-03T05:52:57.790Z,23.16
2022-08-03T05:53:41.117Z,23.19
2022-08-03T05:54:21.230Z,23.26
2022-08-03T05:55:01.109Z,23.21
2022-08-03T05:55:41.167Z,23.24
2022-08-03T05:56:22.109Z,23.36
2022-08-03T05:57:02.186Z,23.32
2022-08-03T05:57:43.084Z,23.32
2022-08-03T05:58:25.169Z,23.41
2022-08-03T05:59:35.713Z,23.42
2022-08-03T06:00:14.394Z,23.42
2022-08-03T06:00:56.112Z,23.50
2022-08-03T06:01:43.171Z,23.53
2022-08-03T06:02:37.099Z,23.49
2022-08-03T06:03:31.076Z,23.49
2022-08-03T06:04:25.084Z,23.59
2022-08-03T06:05:21.071Z,23.54
2022-08-03T06:06:15.120Z,23.57
2022-08-03T06:07:02.119Z,23.57
2022-08-03T06:07:36.144Z,23.64
2022-08-03T06:08:23.088Z,23.61
2022-08-03T06:08:57.143Z,23.66
2022-08-03T06:10:34.126Z,23.74
2022-08-03T06:10:38.520Z,23.72
2022-08-03T06:11:25.071Z,23.76
2022-08-03T06:11:59.128Z,23.78
2022-08-03T06:12:42.175Z,23.73
2022-08-03T06:13:22.199Z,23.72
2022-08-03T06:14:02.094Z,23.74
2022-08-03T06:14:42.169Z,23.77
2022-08-03T06:15:23.112Z,23.87
2022-08-03T06:16:03.218Z,23.89
2022-08-03T06:16:43.086Z,23.85
2022-08-03T06:17:23.162Z,23.89
2022-08-03T06:18:04.100Z,23.86
2022-08-03T06:18:46.002Z,23.91
2022-08-03T06:19:26.115Z,23.76
2022-08-03T06:20:06.199Z,23.94
2022-08-03T06:20:49.245Z,23.85
2022-08-03T06:21:31.175Z,23.97
2022-08-03T06:22:12.109Z,23.99
2022-08-03T06:23:00.132Z,23.96
2022-08-03T06:23:52.933Z,23.95
2022-08-03T06:24:34.163Z,23.92
2022-08-03T06:25:15.091Z,23.99
2022-08-03T06:25:55.209Z,24.04
2022-08-03T06:26:36.112Z,23.99
2022-08-03T06:27:16.498Z,23.96
2022-08-03T06:27:59.061Z,24.03
2022-08-03T06:28:52.583Z,24.03
2022-08-03T06:29:34.117Z,24.03
2022-08-03T06:30:20.988Z,24.00
2022-08-03T06:31:01.178Z,23.98
2022-08-03T06:31:41.197Z,23.95
2022-08-03T06:32:22.104Z,23.98
2022-08-03T06:33:02.188Z,23.98
2022-08-03T06:34:22.858Z,23.97
2022-08-03T06:34:49.097Z,23.94
2022-08-03T06:35:43.077Z,24.04
2022-08-03T06:36:39.083Z,24.03
2022-08-03T06:37:34.115Z,23.99
2022-08-03T06:38:28.238Z,24.08
2022-08-03T06:39:23.350Z,24.00
2022-08-03T06:40:13.995Z,24.07
2022-08-03T06:40:48.134Z,24.10
2022-08-03T06:41:44.850Z,24.11
2022-08-03T06:42:19.253Z,24.06
2022-08-03T06:43:12.739Z,24.10
2022-08-03T06:44:03.444Z,24.05
2022-08-03T06:44:51.085Z,24.06
2022-08-03T06:45:32.299Z,24.19
2022-08-03T06:46:26.077Z,24.17
2022-08-03T06:47:20.065Z,24.20
2022-08-03T06:48:22.081Z,24.12
2022-08-03T06:49:16.122Z,24.15
2022-08-03T06:50:16.277Z,24.27
2022-08-03T06:50:57.067Z,24.23
2022-08-03T06:52:03.555Z,24.12
2022-08-03T06:52:38.699Z,24.11
2022-08-03T06:53:21.230Z,24.18
2022-08-03T06:54:01.076Z,24.18
2022-08-03T06:54:42.185Z,24.33
2022-08-03T06:55:23.044Z,24.35
2022-08-03T06:56:10.075Z,24.29
2022-08-03T06:57:04.057Z,24.33
2022-08-03T06:58:00.139Z,24.40
2022-08-03T06:58:57.081Z,24.38
2022-08-03T07:00:11.051Z,24.40
2022-08-03T07:01:05.118Z,24.44
2022-08-03T07:01:45.129Z,24.52
2022-08-03T07:02:25.199Z,24.47
2022-08-03T07:03:08.046Z,24.46
2022-08-03T07:03:52.495Z,24.50
2022-08-03T07:04:33.046Z,24.50
2022-08-03T07:05:15.171Z,24.51
2022-08-03T07:05:56.062Z,24.42
2022-08-03T07:06:36.204Z,24.48
2022-08-03T07:07:17.102Z,24.52
2022-08-03T07:07:57.672Z,24.55
2022-08-03T07:08:38.029Z,24.49
2022-08-03T07:09:18.132Z,24.54
2022-08-03T07:09:58.398Z,24.57
2022-08-03T07:10:39.084Z,24.58
2022-08-03T07:11:19.057Z,24.63
2022-08-03T07:12:01.314Z,24.62
2022-08-03T07:12:55.801Z,24.69
2022-08-03T07:13:37.161Z,24.67
2022-08-03T07:14:17.039Z,24.71
2022-08-03T07:15:00.921Z,24.63
2022-08-03T07:15:55.222Z,24.57
2022-08-03T07:16:36.118Z,24.67
2022-08-03T07:17:16.062Z,24.77
2022-08-03T07:17:56.158Z,24.83
2022-08-03T07:18:30.243Z,24.75
2022-08-03T07:19:18.056Z,24.77
2022-08-03T07:19:52.131Z,24.81
2022-08-03T07:20:40.046Z,24.89
2022-08-03T07:21:14.165Z,24.94
2022-08-03T07:22:02.329Z,24.99
2022-08-03T07:22:38.915Z,24.92
2022-08-03T07:23:20.041Z,24.88
2022-08-03T07:24:00.095Z,24.95
2022-08-03T07:24:40.033Z,24.92
2022-08-03T07:25:20.237Z,25.02
2022-08-03T07:26:00.036Z,24.97
2022-08-03T07:26:40.143Z,25.07
2022-08-03T07:27:20.034Z,25.07
2022-08-03T07:28:00.095Z,25.11
2022-08-03T07:28:41.052Z,25.16
2022-08-03T07:29:21.267Z,25.14
2022-08-03T07:30:02.018Z,25.15
2022-08-03T07:30:42.111Z,25.15
2022-08-03T07:31:22.039Z,25.21
2022-08-03T07:32:02.172Z,25.25
2022-08-03T07:32:49.849Z,25.22
2022-08-03T07:33:31.086Z,25.29
2022-08-03T07:34:12.035Z,25.28
2022-08-03T07:34:53.806Z,25.34
2022-08-03T07:35:36.026Z,25.29
2022-08-03T07:36:31.031Z,25.33
2022-08-03T07:37:28.047Z,25.38
2022-08-03T07:38:23.043Z,25.46
2022-08-03T07:39:18.277Z,25.49
2022-08-03T07:40:16.052Z,25.51
2022-08-03T07:41:10.040Z,25.46
2022-08-03T07:42:04.005Z,25.48
2022-08-03T07:42:58.007Z,25.49
2022-08-03T07:43:52.025Z,25.49
2022-08-03T07:44:39.057Z,25.50
2022-08-03T07:45:16.738Z,25.48
2022-08-03T07:46:04.024Z,25.51
2022-08-03T07:46:38.089Z,25.49
2022-08-03T07:47:35.517Z,25.45
2022-08-03T07:48:12.389Z,25.60
2022-08-03T07:49:00.091Z,25.55
2022-08-03T07:49:34.235Z,25.65
2022-08-03T07:50:15.042Z,25.62
2022-08-03T07:50:55.153Z,25.68
2022-08-03T07:51:35.009Z,25.64
2022-08-03T07:52:33.779Z,25.67
2022-08-03T07:53:15.028Z,25.77
2022-08-03T07:53:57.593Z,25.85
2022-08-03T07:54:38.993Z,25.77
2022-08-03T07:55:26.034Z,25.80
2022-08-03T07:56:20.032Z,25.87
2022-08-03T07:57:14.026Z,25.86
2022-08-03T07:58:24.173Z,25.90
2022-08-03T07:59:18.001Z,25.74
2022-08-03T08:00:12.011Z,25.87
2022-08-03T08:00:52.066Z,25.74
2022-08-03T08:01:34.116Z,25.85
2022-08-03T08:02:15.138Z,25.80
2022-08-03T08:02:56.074Z,25.85
2022-08-03T08:03:52.460Z,25.91
2022-08-03T08:04:34.070Z,25.87
2022-08-03T08:05:16.982Z,25.91
2022-08-03T08:06:04.021Z,25.93
2022-08-03T08:07:00.007Z,25.92
2022-08-03T08:07:54.008Z,25.92
2022-08-03T08:08:47.977Z,25.96
2022-08-03T08:09:42.000Z,25.95
2022-08-03T08:10:36.994Z,25.96
2022-08-03T08:11:24.019Z,26.04
2022-08-03T08:11:58.058Z,26.03
2022-08-03T08:12:46.986Z,26.10
2022-08-03T08:13:21.043Z,26.09
2022-08-03T08:14:08.980Z,26.07
2022-08-03T08:14:45.734Z,26.14
2022-08-03T08:15:33.034Z,26.10
2022-08-03T08:16:07.101Z,26.08
2022-08-03T08:16:47.021Z,26.13
2022-08-03T08:17:27.079Z,26.10
2022-08-03T08:18:08.989Z,26.16
2022-08-03T08:18:49.064Z,26.19
2022-08-03T08:19:29.195Z,26.24
2022-08-03T08:20:14.051Z,26.14
2022-08-03T08:20:57.973Z,26.30
2022-08-03T08:21:53.422Z,26.23
2022-08-03T08:22:38.086Z,26.26
2022-08-03T08:23:43.694Z,26.24
2022-08-03T08:24:23.980Z,26.31
2022-08-03T08:25:06.066Z,26.33
2022-08-03T08:25:46.976Z,26.38
2022-08-03T08:26:27.076Z,26.23
2022-08-03T08:27:09.981Z,26.36
2022-08-03T08:28:31.451Z,26.37
2022-08-03T08:29:18.056Z,26.46
2022-08-03T08:30:15.962Z,26.44
2022-08-03T08:31:15.004Z,26.47
2022-08-03T08:32:08.980Z,26.49
2022-08-03T08:33:03.002Z,26.52
2022-08-03T08:34:04.814Z,26.56
2022-08-03T08:34:58.994Z,26.57
2022-08-03T08:35:53.039Z,26.59
2022-08-03T08:36:47.987Z,26.55
2022-08-03T08:37:42.034Z,26.57
2022-08-03T08:38:21.993Z,26.61
2022-08-03T08:39:02.087Z,26.63
2022-08-03T08:39:41.979Z,26.68
2022-08-03T08:40:23.068Z,26.71
2022-08-03T08:41:03.995Z,26.78
2022-08-03T08:41:46.152Z,26.76
2022-08-03T08:42:27.026Z,26.68
2022-08-03T08:43:07.713Z,26.71
2022-08-03T08:43:48.993Z,26.79
2022-08-03T08:44:29.073Z,26.84
2022-08-03T08:45:12.006Z,26.90
2022-08-03T08:45:54.085Z,26.93
2022-08-03T08:46:36.015Z,26.82
2022-08-03T08:47:16.061Z,26.89
2022-08-03T08:48:01.845Z,26.91
2022-08-03T08:48:56.038Z,27.00
2022-08-03T08:50:08.835Z,26.99
2022-08-03T08:51:10.011Z,27.02
2022-08-03T08:52:05.014Z,27.01
2022-08-03T08:53:27.267Z,26.96
2022-08-03T08:54:17.031Z,27.04
2022-08-03T08:54:52.073Z,27.01
2022-08-03T08:55:56.943Z,27.07
2022-08-03T08:56:34.080Z,27.15
2022-08-03T08:57:41.863Z,27.17
2022-08-03T08:58:20.926Z,27.05
2022-08-03T08:59:09.016Z,27.15
2022-08-03T08:59:52.524Z,27.11
2022-08-03T09:00:50.128Z,27.16
2022-08-03T09:01:44.006Z,27.20
2022-08-03T09:02:39.005Z,27.28
2022-08-03T09:03:33.043Z,27.26
2022-08-03T09:04:26.979Z,27.36
2022-08-03T09:05:31.661Z,27.36
2022-08-03T09:06:15.348Z,27.37
2022-08-03T09:07:19.115Z,27.37
2022-08-03T09:07:54.164Z,27.41
2022-08-03T09:08:43.116Z,27.42
2022-08-03T09:10:10.445Z,27.38
2022-08-03T09:10:29.069Z,27.50
2022-08-03T09:11:03.094Z,27.42
2022-08-03T09:11:51.579Z,27.51
2022-08-03T09:12:49.279Z,27.52
2022-08-03T09:13:36.998Z,27.56
2022-08-03T09:14:11.208Z,27.55
2022-08-03T09:15:38.028Z,27.57
2022-08-03T09:16:23.423Z,27.55
2022-08-03T09:17:17.561Z,27.51
2022-08-03T09:17:52.067Z,27.60
2022-08-03T09:18:39.971Z,27.64
2022-08-03T09:19:20.068Z,27.62
2022-08-03T09:20:16.971Z,27.58
2022-08-03T09:21:01.420Z,27.62
2022-08-03T09:22:27.991Z,27.69
2022-08-03T09:23:59.060Z,27.68
2022-08-03T09:24:41.558Z,27.69
2022-08-03T09:25:52.957Z,27.63
2022-08-03T09:26:36.078Z,27.69
2022-08-03T09:27:19.208Z,27.69
2022-08-03T09:27:59.050Z,27.70
2022-08-03T09:29:01.491Z,27.68
2022-08-03T09:29:43.970Z,27.82
2022-08-03T09:30:34.599Z,27.74
2022-08-03T09:31:15.968Z,27.78
2022-08-03T09:31:55.982Z,27.76
2022-08-03T09:32:31.512Z,27.82
2022-08-03T09:33:24.937Z,27.91
2022-08-03T09:34:15.112Z,27.92
2022-08-03T09:35:10.982Z,27.93
2022-08-03T09:35:57.776Z,27.93
2022-08-03T09:36:47.971Z,27.94
2022-08-03T09:38:05.995Z,27.99
2022-08-03T09:38:46.049Z,27.95
2022-08-03T09:39:43.977Z,27.93
2022-08-03T09:40:53.711Z,28.01
2022-08-03T09:41:55.976Z,28.01
2022-08-03T09:42:49.985Z,27.99
2022-08-03T09:44:02.969Z,27.95
2022-08-03T09:45:05.053Z,28.07
2022-08-03T09:45:59.925Z,28.00
2022-08-03T09:47:09.987Z,28.14
2022-08-03T09:48:05.989Z,28.18
2022-08-03T09:49:00.015Z,28.14
2022-08-03T09:49:56.930Z,28.16
2022-08-03T09:52:27.322Z,28.22
2022-08-03T09:52:39.137Z,28.22
2022-08-03T09:53:31.014Z,28.28
2022-08-03T09:54:18.838Z,28.31
2022-08-03T09:55:00.945Z,28.20
2022-08-03T09:56:33.067Z,28.30
2022-08-03T09:56:51.954Z,28.33
2022-08-03T09:57:34.090Z,28.35
2022-08-03T09:58:16.936Z,28.33
2022-08-03T09:58:57.953Z,28.37
2022-08-03T09:59:39.163Z,28.31
2022-08-03T10:00:27.950Z,28.34
2022-08-03T10:01:24.300Z,28.42